Flight Track Log - Related Links

Times and Time Zones

All times are in EDT time to prevent confusion due to time zone crossing. See the UAL3776 flight status page for this flight to view local times or setup timezone preferences in your user account.

Time Position Orientation Groundspeed Altitude Reporting Facility
EDT Latitude Longitude Course Direction KTS MPH feet Rate Location/Type
Wed 04:06:59 PM 38.9500 -77.5000 195° South 172 198 1,300  Level Potomac TRACON
Wed 04:07:59 PM 38.9000 -77.5167 195° South 222 255 2,900 2,100 Climbing Potomac TRACON
Wed 04:08:59 PM 38.8167 -77.5167 180° South 257 296 5,500 2,800 Climbing Potomac TRACON
Wed 04:09:59 PM 38.7500 -77.5167 180° South 285 328 8,500 2,628 Climbing Potomac TRACON
Wed 04:11:00 PM 38.6667 -77.5000 171° South 296 341 10,800 1,190 Climbing Potomac TRACON
Wed 04:12:00 PM 38.5667 -77.5000 180° South 326 375 10,900 117 Climbing Potomac TRACON
Wed 04:12:43 PM 38.5169 -77.4889 170° South 335 386 11,000 1,165 Climbing Washington Center
Wed 04:13:43 PM 38.4253 -77.4761 174° South 346 398 12,900 950 Climbing Washington Center
Wed 04:14:43 PM 38.3394 -77.5003 192° South 346 398 12,900 850 Level Washington Center
Wed 04:15:43 PM 38.3022 -77.6078 246° West 277 319 14,600 1,750 Climbing Washington Center
Wed 04:16:43 PM 38.2531 -77.6886 232° Southwest 312 359 16,400 1,150 Climbing Washington Center
Wed 04:17:43 PM 38.1619 -77.7678 214° Southwest 349 402 16,900 300 Climbing Washington Center
Wed 04:18:43 PM 38.0814 -77.8367 214° Southwest 393 452 17,000 450 Climbing Washington Center
Wed 04:19:43 PM 37.9861 -77.9156 213° Southwest 407 468 17,800 1,300 Climbing Washington Center
Wed 04:20:43 PM 37.8947 -77.9969 215° Southwest 407 468 19,600 1,750 Climbing Washington Center
Wed 04:21:43 PM 37.7992 -78.0781 214° Southwest 407 468 21,300 1,200 Climbing Washington Center
Wed 04:22:43 PM 37.7017 -78.1589 213° Southwest 412 474 22,000 350 Climbing Washington Center
Wed 04:23:43 PM 37.5953 -78.2522 215° Southwest 420 483 22,000  Level Washington Center
Wed 04:24:43 PM 37.5058 -78.3275 214° Southwest 428 493 22,000  Level Washington Center
Wed 04:25:43 PM 37.4081 -78.4078 213° Southwest 433 498 22,000  Level Washington Center
Wed 04:26:43 PM 37.3103 -78.4903 214° Southwest 433 498 22,000  Level Washington Center
Wed 04:27:43 PM 37.2103 -78.5700 212° Southwest 433 498 22,000  Level Washington Center
Wed 04:28:43 PM 37.1036 -78.6594 214° Southwest 433 498 22,000 -550 Level Washington Center
Wed 04:29:43 PM 37.0056 -78.7417 214° Southwest 433 498 20,900 -1,300 Descending Washington Center
Wed 04:30:43 PM 36.9117 -78.8183 213° Southwest 428 493 19,400 -1,450 Descending Washington Center
Wed 04:31:43 PM 36.8219 -78.8922 213° Southwest 415 478 18,000 -1,500 Descending Washington Center
Wed 04:32:43 PM 36.7453 -78.9539 213° Southwest 388 447 16,400 -1,800 Descending Washington Center
Wed 04:33:43 PM 36.6539 -79.0147 208° Southwest 368 423 14,400 -2,025 Descending Washington Center
Wed 04:34:03 PM 36.6167 -79.0000 162° South 339 390 13,700 -2,000 Descending Washington Center
Wed 04:34:22 PM 36.5919 -78.9939 169° South 336 387 13,100 -1,950 Descending Washington Center
Wed 04:34:43 PM 36.5692 -78.9825 158° South 325 374 12,400 -2,000 Descending Washington Center
Wed 04:35:43 PM 36.4781 -78.9631 170° South 330 380 10,400 -1,358 Descending Washington Center
Wed 04:36:29 PM 36.4017 -78.9339 163° South 315 362 10,000 -590 Descending Washington Center
Wed 04:36:44 PM 36.3892 -78.9256 152° Southeast 324 373 9,800 -1,672 Descending Washington Center
Wed 04:37:30 PM 36.3364 -78.8794 145° Southeast 285 328 8,300 -953 Descending Washington Center
Wed 04:38:31 PM 36.2753 -78.8253 144° Southeast 271 312 8,100 -443 Descending Washington Center
Wed 04:39:32 PM 36.2100 -78.7661 144° Southeast 285 328 7,400 -992 Descending Washington Center
Wed 04:40:32 PM 36.1467 -78.7094 144° Southeast 280 322 6,100 -1,200 Descending Washington Center
Wed 04:41:27 PM 36.0850 -78.6789 158° South 251 289 5,100 -1,183 Descending Washington Center
Wed 04:41:43 PM 36.0686 -78.6678 151° Southeast 263 303 4,700 -1,967 Descending Washington Center
Wed 04:42:28 PM 36.0189 -78.6583 171° South 256 295 3,100 -2,000 Descending Washington Center
Wed 04:42:43 PM 35.9997 -78.6625 190° South 244 281 2,700 -822 Descending Washington Center
Wed 04:43:41 PM 35.9572 -78.6994 215° Southwest 182 209 2,100 -581 Descending Washington Center
Wed 04:44:47 PM 35.9269 -78.7394 227° Southwest 118 136 1,500 -661 Descending Washington Center
Wed 04:45:30 PM 35.9056 -78.7617 220° Southwest 123 142 900 -837 Descending Washington Center
Wed 04:47:00 PM 35.8776 -78.7875 219° Southwest  Level Estimated
Wed 04:54:00 PM 35.8776 -78.7875 219° Southwest  Level Estimated

Login

Don't have an account? Register now (free) for customized features, flight alerts, and more!